createdAt,value
2019-04-03T00:01:40.435Z,52.29
2019-04-03T00:04:11.174Z,52.20
2019-04-03T00:06:41.116Z,52.39
2019-04-03T00:09:11.236Z,52.42
2019-04-03T00:11:41.322Z,52.51
2019-04-03T00:14:12.880Z,52.63
2019-04-03T00:16:43.741Z,52.76
2019-04-03T00:19:17.344Z,52.91
2019-04-03T00:21:47.073Z,52.94
2019-04-03T00:24:17.379Z,52.78
2019-04-03T00:26:47.226Z,52.82
2019-04-03T00:29:17.570Z,52.87
2019-04-03T00:31:47.974Z,52.87
2019-04-03T00:34:18.288Z,52.85
2019-04-03T00:36:48.302Z,53.05
2019-04-03T00:39:18.537Z,53.02
2019-04-03T00:41:49.303Z,52.98
2019-04-03T00:44:19.353Z,53.09
2019-04-03T00:46:50.571Z,53.16
2019-04-03T00:49:20.714Z,53.35
2019-04-03T00:51:50.698Z,53.64
2019-04-03T00:54:20.579Z,53.86
2019-04-03T00:56:50.459Z,53.93
2019-04-03T00:59:20.570Z,54.10
2019-04-03T01:01:50.404Z,54.20
2019-04-03T01:04:20.471Z,54.36
2019-04-03T01:06:50.311Z,54.49
2019-04-03T01:09:20.630Z,55.15
2019-04-03T01:11:50.739Z,54.71
2019-04-03T01:14:20.947Z,54.67
2019-04-03T01:16:50.964Z,54.85
2019-04-03T01:19:21.255Z,54.94
2019-04-03T01:21:51.264Z,54.76
2019-04-03T01:24:22.228Z,54.70
2019-04-03T01:26:52.366Z,54.79
2019-04-03T01:29:22.455Z,55.10
2019-04-03T01:31:52.193Z,54.92
2019-04-03T01:34:22.327Z,54.82
2019-04-03T01:36:52.478Z,54.95
2019-04-03T01:39:22.610Z,55.09
2019-04-03T01:41:56.498Z,55.35
2019-04-03T01:44:26.437Z,55.19
2019-04-03T01:46:57.680Z,54.96
2019-04-03T01:49:28.671Z,55.00
2019-04-03T01:52:00.729Z,55.11
2019-04-03T01:54:31.595Z,55.13
2019-04-03T01:57:06.010Z,55.15
2019-04-03T01:59:37.086Z,55.21
2019-04-03T02:02:08.331Z,55.01
2019-04-03T02:04:38.564Z,55.22
2019-04-03T02:07:08.757Z,55.28
2019-04-03T02:09:38.738Z,55.49
2019-04-03T02:12:08.762Z,55.44
2019-04-03T02:14:38.484Z,55.56
2019-04-03T02:17:08.788Z,55.80
2019-04-03T02:19:38.646Z,55.80
2019-04-03T02:22:08.650Z,55.57
2019-04-03T02:24:38.745Z,55.57
2019-04-03T02:27:09.132Z,55.63
2019-04-03T02:29:39.865Z,55.56
2019-04-03T02:32:10.604Z,55.58
2019-04-03T02:34:40.773Z,55.19
2019-04-03T02:37:11.013Z,55.36
2019-04-03T02:39:40.693Z,55.14
2019-04-03T02:42:10.605Z,55.01
2019-04-03T02:44:40.397Z,55.01
2019-04-03T02:47:10.480Z,54.98
2019-04-03T02:49:42.724Z,55.00
2019-04-03T02:52:12.299Z,55.04
2019-04-03T02:54:42.561Z,55.35
2019-04-03T02:57:16.687Z,55.52
2019-04-03T02:59:44.489Z,55.44
2019-04-03T03:02:14.693Z,55.37
2019-04-03T03:04:44.933Z,55.41
2019-04-03T03:07:14.930Z,55.56
2019-04-03T03:09:47.184Z,55.54
2019-04-03T03:12:17.998Z,55.48
2019-04-03T03:14:48.527Z,55.52
2019-04-03T03:17:21.523Z,55.59
2019-04-03T03:19:51.964Z,55.66
2019-04-03T03:22:22.628Z,55.64
2019-04-03T03:24:53.594Z,55.78
2019-04-03T03:27:26.698Z,55.70
2019-04-03T03:29:59.678Z,55.61
2019-04-03T03:32:34.070Z,55.51
2019-04-03T03:35:11.671Z,55.34
2019-04-03T03:37:35.586Z,55.15
2019-04-03T03:40:06.755Z,55.04
2019-04-03T03:42:37.018Z,54.78
2019-04-03T03:45:07.826Z,54.54
2019-04-03T03:47:42.197Z,54.28
2019-04-03T03:50:12.855Z,53.91
2019-04-03T03:52:43.498Z,53.64
2019-04-03T03:55:13.456Z,53.32
2019-04-03T03:57:43.906Z,53.02
2019-04-03T04:00:14.466Z,52.74
2019-04-03T04:02:45.309Z,52.49
2019-04-03T04:05:17.553Z,52.46
2019-04-03T04:07:47.734Z,52.29
2019-04-03T04:10:17.939Z,52.07
2019-04-03T04:12:48.980Z,51.87
2019-04-03T04:15:19.119Z,51.69
2019-04-03T04:17:51.296Z,51.35
2019-04-03T04:20:21.417Z,51.19
2019-04-03T04:22:51.593Z,51.04
2019-04-03T04:25:22.375Z,50.79
2019-04-03T04:27:52.229Z,50.58
2019-04-03T04:30:22.725Z,50.41
2019-04-03T04:32:53.397Z,50.18
2019-04-03T04:35:23.469Z,49.90
2019-04-03T04:37:55.289Z,49.73
2019-04-03T04:40:25.642Z,49.57
2019-04-03T04:42:56.193Z,49.41
2019-04-03T04:45:26.455Z,49.19
2019-04-03T04:47:57.562Z,49.01
2019-04-03T04:50:27.615Z,48.76
2019-04-03T04:52:58.700Z,48.61
2019-04-03T04:55:31.329Z,48.38
2019-04-03T04:58:01.377Z,48.17
2019-04-03T05:00:31.498Z,47.71
2019-04-03T05:03:02.419Z,47.33
2019-04-03T05:05:32.544Z,47.10
2019-04-03T05:08:02.674Z,46.97
2019-04-03T05:10:32.906Z,46.94
2019-04-03T05:13:02.871Z,46.80
2019-04-03T05:15:33.141Z,46.55
2019-04-03T05:18:03.932Z,46.42
2019-04-03T05:20:34.165Z,46.21
2019-04-03T05:23:04.404Z,46.00
2019-04-03T05:25:34.530Z,45.82
2019-04-03T05:28:04.848Z,45.54
2019-04-03T05:30:37.110Z,45.46
2019-04-03T05:33:07.633Z,45.46
2019-04-03T05:35:39.383Z,45.36
2019-04-03T05:38:09.577Z,45.23
2019-04-03T05:40:40.307Z,45.11
2019-04-03T05:43:10.749Z,45.04
2019-04-03T05:45:42.133Z,44.70
2019-04-03T05:48:13.596Z,44.47
2019-04-03T05:50:44.068Z,44.37
2019-04-03T05:53:14.202Z,44.25
2019-04-03T05:55:44.571Z,44.06
2019-04-03T05:58:16.464Z,44.00
2019-04-03T06:00:47.392Z,43.89
2019-04-03T06:03:17.152Z,43.82
2019-04-03T06:05:47.389Z,43.70
2019-04-03T06:08:19.952Z,43.71
2019-04-03T06:10:49.904Z,43.62
2019-04-03T06:13:20.075Z,43.45
2019-04-03T06:15:52.726Z,43.16
2019-04-03T06:18:21.901Z,42.96
2019-04-03T06:20:52.295Z,42.85
2019-04-03T06:23:22.773Z,42.28
2019-04-03T06:25:53.030Z,42.05
2019-04-03T06:28:23.380Z,42.16
2019-04-03T06:30:56.596Z,42.12
2019-04-03T06:33:31.523Z,41.73
2019-04-03T06:36:01.852Z,41.60
2019-04-03T06:38:32.136Z,41.60
2019-04-03T06:41:02.045Z,41.56
2019-04-03T06:43:31.865Z,41.66
2019-04-03T06:46:02.669Z,41.65
2019-04-03T06:48:32.835Z,41.58
2019-04-03T06:51:04.112Z,41.34
2019-04-03T06:53:34.562Z,41.23
2019-04-03T06:56:07.828Z,40.64
2019-04-03T06:58:39.659Z,40.54
2019-04-03T07:01:09.593Z,40.44
2019-04-03T07:03:39.753Z,40.41
2019-04-03T07:06:09.785Z,40.61
2019-04-03T07:08:41.155Z,40.44
2019-04-03T07:11:22.703Z,40.45
2019-04-03T07:13:43.881Z,40.39
2019-04-03T07:16:14.122Z,40.02
2019-04-03T07:18:44.778Z,39.39
2019-04-03T07:21:15.301Z,39.31
2019-04-03T07:23:45.884Z,39.25
2019-04-03T07:26:15.864Z,39.33
2019-04-03T07:28:47.250Z,39.16
2019-04-03T07:31:17.572Z,38.91
2019-04-03T07:33:48.002Z,38.77
2019-04-03T07:36:18.238Z,38.48
2019-04-03T07:38:48.824Z,38.44
2019-04-03T07:41:22.101Z,38.34
2019-04-03T07:43:51.502Z,38.32
2019-04-03T07:46:21.805Z,38.25
2019-04-03T07:48:52.015Z,38.17
2019-04-03T07:51:21.998Z,38.10
2019-04-03T07:53:52.957Z,38.26
2019-04-03T07:56:25.835Z,38.15
2019-04-03T07:58:56.245Z,38.14
2019-04-03T08:01:29.733Z,38.15
2019-04-03T08:04:00.929Z,38.03
2019-04-03T08:06:35.874Z,38.15
2019-04-03T08:09:09.740Z,38.01
2019-04-03T08:11:39.836Z,38.11
2019-04-03T08:14:12.968Z,38.12
2019-04-03T08:16:43.343Z,38.21
2019-04-03T08:19:13.818Z,38.35
2019-04-03T08:21:44.001Z,38.46
2019-04-03T08:24:14.522Z,38.29
2019-04-03T08:26:50.524Z,38.05
2019-04-03T08:29:20.113Z,37.99
2019-04-03T08:31:50.718Z,38.21
2019-04-03T08:34:22.912Z,38.07
2019-04-03T08:36:53.233Z,37.88
2019-04-03T08:39:27.175Z,37.71
2019-04-03T08:41:57.396Z,37.57
2019-04-03T08:44:28.023Z,37.29
2019-04-03T08:46:58.354Z,36.81
2019-04-03T08:49:28.467Z,37.04
2019-04-03T08:51:58.623Z,37.34
2019-04-03T08:54:28.841Z,36.92
2019-04-03T08:56:59.038Z,36.77
2019-04-03T08:59:29.312Z,37.25
2019-04-03T09:01:59.599Z,38.25
2019-04-03T09:04:29.769Z,38.17
2019-04-03T09:07:00.800Z,37.31
2019-04-03T09:09:34.415Z,37.68
2019-04-03T09:12:05.618Z,37.64
2019-04-03T09:14:36.072Z,37.35
2019-04-03T09:17:06.335Z,36.98
2019-04-03T09:19:36.442Z,36.57
2019-04-03T09:22:06.376Z,36.53
2019-04-03T09:24:36.376Z,36.54
2019-04-03T09:27:08.141Z,36.36
2019-04-03T09:29:38.567Z,36.29
2019-04-03T09:32:09.040Z,36.37
2019-04-03T09:34:39.221Z,36.48
2019-04-03T09:37:09.691Z,36.49
2019-04-03T09:39:39.638Z,36.33
2019-04-03T09:42:10.194Z,36.04
2019-04-03T09:44:40.844Z,36.10
2019-04-03T09:47:10.883Z,36.32
2019-04-03T09:49:43.761Z,36.44
2019-04-03T09:52:13.028Z,36.40
2019-04-03T09:54:43.377Z,36.37
2019-04-03T09:57:13.375Z,36.11
2019-04-03T09:59:44.052Z,35.94
2019-04-03T10:02:14.637Z,35.98
2019-04-03T10:04:44.737Z,35.70
2019-04-03T10:07:15.221Z,35.70
2019-04-03T10:09:45.525Z,35.79
2019-04-03T10:12:15.741Z,35.64
2019-04-03T10:14:46.170Z,35.60
2019-04-03T10:17:16.087Z,35.68
2019-04-03T10:19:46.382Z,35.75
2019-04-03T10:22:18.432Z,35.58
2019-04-03T10:24:48.831Z,35.78
2019-04-03T10:27:19.175Z,35.54
2019-04-03T10:29:50.710Z,35.59
2019-04-03T10:32:22.486Z,35.62
2019-04-03T10:34:52.748Z,35.75
2019-04-03T10:37:23.484Z,35.57
2019-04-03T10:39:54.009Z,35.73
2019-04-03T10:42:24.797Z,36.17
2019-04-03T10:44:57.955Z,36.12
2019-04-03T10:47:40.479Z,35.94
2019-04-03T10:50:02.237Z,35.61
2019-04-03T10:52:32.767Z,35.52
2019-04-03T10:55:03.621Z,35.28
2019-04-03T11:05:15.348Z,34.88
2019-04-03T11:07:45.882Z,34.66
2019-04-03T11:10:16.993Z,34.41
2019-04-03T11:12:47.701Z,34.65
2019-04-03T11:15:18.472Z,34.43
2019-04-03T11:17:49.952Z,34.28
2019-04-03T11:20:20.608Z,33.90
2019-04-03T11:23:04.439Z,33.79
2019-04-03T11:25:24.848Z,33.43
2019-04-03T11:27:56.213Z,33.51
2019-04-03T11:31:01.099Z,33.04
2019-04-03T11:33:31.897Z,32.79
2019-04-03T11:36:40.991Z,32.93
2019-04-03T11:49:38.809Z,32.46
2019-04-03T11:52:09.728Z,32.21
2019-04-03T11:54:44.103Z,32.16
2019-04-03T11:57:16.391Z,32.29
2019-04-03T11:59:47.470Z,32.28
2019-04-03T12:02:21.819Z,32.09
2019-04-03T12:04:52.121Z,31.57
2019-04-03T12:07:23.160Z,31.68
2019-04-03T12:10:26.046Z,31.68
2019-04-03T12:12:57.145Z,31.36
2019-04-03T12:15:27.487Z,31.61
2019-04-03T12:18:00.830Z,31.63
2019-04-03T12:20:29.870Z,31.32
2019-04-03T12:23:00.384Z,30.61
2019-04-03T12:25:31.460Z,29.29
2019-04-03T12:28:03.143Z,27.17
2019-04-03T12:30:36.839Z,25.62
2019-04-03T12:33:07.336Z,24.36
2019-04-03T12:35:42.230Z,22.94
2019-04-03T12:38:12.522Z,21.78
2019-04-03T12:40:42.842Z,21.48
2019-04-03T12:43:13.161Z,21.08
2019-04-03T12:45:43.698Z,20.16
2019-04-03T12:48:17.056Z,18.99
2019-04-03T12:50:47.013Z,18.19
2019-04-03T12:53:17.514Z,17.54
2019-04-03T12:55:49.930Z,16.42
2019-04-03T12:58:24.776Z,16.49
2019-04-03T13:00:56.105Z,15.68
2019-04-03T13:03:26.328Z,15.98
2019-04-03T13:05:59.635Z,15.50
2019-04-03T13:08:31.095Z,14.87
2019-04-03T13:11:04.156Z,14.89
2019-04-03T13:13:34.894Z,15.05
2019-04-03T13:16:08.852Z,15.06
2019-04-03T13:18:37.572Z,15.02
2019-04-03T13:21:09.370Z,15.25
2019-04-03T13:23:40.084Z,14.76
2019-04-03T13:26:10.661Z,14.25
2019-04-03T13:28:41.473Z,14.23
2019-04-03T13:31:16.005Z,13.89
2019-04-03T13:33:47.095Z,14.52
2019-04-03T13:36:18.707Z,14.18
2019-04-03T13:38:51.255Z,13.48
2019-04-03T13:41:21.803Z,12.95
2019-04-03T13:43:54.392Z,12.64
2019-04-03T13:46:25.623Z,12.61
2019-04-03T13:48:56.053Z,12.70
2019-04-03T13:51:27.247Z,12.59
2019-04-03T13:53:57.912Z,12.60
2019-04-03T13:56:32.540Z,12.57
2019-04-03T13:59:02.816Z,12.48
2019-04-03T14:01:32.658Z,12.48
2019-04-03T14:04:06.882Z,12.58
2019-04-03T14:06:37.300Z,12.52
2019-04-03T14:09:08.192Z,12.17
2019-04-03T14:11:38.821Z,12.08
2019-04-03T14:14:08.912Z,12.04
2019-04-03T14:16:39.379Z,11.90
2019-04-03T14:19:11.836Z,12.07
2019-04-03T14:21:41.798Z,12.48
2019-04-03T14:24:12.560Z,12.78
2019-04-03T14:26:45.631Z,12.87
2019-04-03T14:29:19.244Z,12.75
2019-04-03T14:31:50.013Z,12.50
2019-04-03T14:34:20.123Z,12.59
2019-04-03T14:36:51.132Z,13.22
2019-04-03T14:39:22.031Z,14.07
2019-04-03T14:41:54.294Z,15.70
2019-04-03T14:44:26.102Z,17.59
2019-04-03T14:46:56.686Z,19.42
2019-04-03T14:49:26.886Z,20.67
2019-04-03T14:52:14.947Z,21.81
2019-04-03T14:54:48.432Z,22.78
2019-04-03T14:57:23.160Z,23.90
2019-04-03T14:59:52.256Z,24.65
2019-04-03T15:02:23.881Z,25.23
2019-04-03T15:04:54.804Z,26.05
2019-04-03T15:07:25.124Z,26.52
2019-04-03T15:09:55.476Z,27.01
2019-04-03T15:12:25.810Z,27.53
2019-04-03T15:14:56.098Z,27.77
2019-04-03T15:17:28.531Z,28.20
2019-04-03T15:19:59.199Z,28.42
2019-04-03T15:22:31.143Z,28.67
2019-04-03T15:25:01.669Z,29.11
2019-04-03T15:27:32.390Z,29.48
2019-04-03T15:30:03.781Z,29.64
2019-04-03T15:32:34.229Z,30.10
2019-04-03T15:35:05.318Z,30.21
2019-04-03T15:37:40.119Z,30.38
2019-04-03T15:40:14.933Z,30.50
2019-04-03T15:42:46.238Z,30.79
2019-04-03T15:45:16.774Z,30.99
2019-04-03T15:47:47.759Z,31.20
2019-04-03T15:50:18.589Z,31.61
2019-04-03T15:52:50.689Z,31.70
2019-04-03T15:55:24.118Z,31.95
2019-04-03T15:57:53.954Z,32.13
2019-04-03T16:00:25.081Z,32.34
2019-04-03T16:02:57.908Z,32.64
2019-04-03T16:05:30.471Z,32.69
2019-04-03T16:08:00.702Z,32.81
2019-04-03T16:10:34.990Z,32.98
2019-04-03T16:13:05.913Z,33.24
2019-04-03T16:15:36.721Z,33.47
2019-04-03T16:18:08.232Z,33.79
2019-04-03T16:20:39.183Z,33.91
2019-04-03T16:23:10.240Z,34.00
2019-04-03T16:25:41.229Z,34.16
2019-04-03T16:28:13.651Z,34.26
2019-04-03T16:30:46.481Z,34.50
2019-04-03T16:33:22.049Z,34.70
2019-04-03T16:35:49.293Z,34.86
2019-04-03T16:38:22.767Z,34.98
2019-04-03T16:40:53.494Z,35.28
2019-04-03T16:43:24.002Z,35.46
2019-04-03T16:45:54.831Z,35.75
2019-04-03T16:48:25.797Z,35.88
2019-04-03T16:50:58.925Z,36.32
2019-04-03T16:53:31.480Z,36.47
2019-04-03T16:56:02.207Z,36.73
2019-04-03T16:58:33.767Z,36.85
2019-04-03T17:01:04.210Z,37.10
2019-04-03T17:03:34.508Z,37.33
2019-04-03T17:06:04.839Z,37.58
2019-04-03T17:08:38.438Z,37.66
2019-04-03T17:11:11.303Z,37.80
2019-04-03T17:13:41.470Z,37.94
2019-04-03T17:16:13.949Z,38.09
2019-04-03T17:18:47.114Z,38.08
2019-04-03T17:21:16.707Z,38.37
2019-04-03T17:23:47.089Z,38.62
2019-04-03T17:26:17.460Z,38.60
2019-04-03T17:28:47.978Z,38.90
2019-04-03T17:31:20.035Z,39.01
2019-04-03T17:33:49.973Z,39.03
2019-04-03T17:36:22.075Z,39.17
2019-04-03T17:38:52.803Z,39.31
2019-04-03T17:41:23.282Z,39.61
2019-04-03T17:43:55.164Z,39.76
2019-04-03T17:46:25.830Z,39.87
2019-04-03T17:48:58.554Z,40.14
2019-04-03T17:51:34.111Z,40.26
2019-04-03T17:54:07.749Z,40.23
2019-04-03T17:56:41.050Z,40.23
2019-04-03T18:05:50.910Z,40.60
2019-04-03T18:08:21.734Z,40.92
2019-04-03T18:10:54.306Z,40.98
2019-04-03T18:13:25.098Z,41.18
2019-04-03T18:15:58.631Z,41.31
2019-04-03T18:18:33.503Z,41.48
2019-04-03T18:21:04.763Z,41.58
2019-04-03T18:23:34.697Z,41.54
2019-04-03T18:26:04.854Z,41.55
2019-04-03T18:28:35.743Z,41.79
2019-04-03T18:31:06.456Z,42.79
2019-04-03T18:33:38.912Z,43.38
2019-04-03T18:36:09.194Z,42.93
2019-04-03T18:38:39.483Z,43.15
2019-04-03T18:41:18.120Z,43.42
2019-04-03T18:43:48.216Z,43.26
2019-04-03T18:46:31.280Z,43.08
2019-04-03T18:48:54.696Z,43.66
2019-04-03T18:51:23.134Z,43.63
2019-04-03T18:53:52.909Z,44.10
2019-04-03T18:56:23.434Z,43.90
2019-04-03T18:58:55.018Z,43.44
2019-04-03T19:01:28.361Z,43.38
2019-04-03T19:04:02.819Z,43.51
2019-04-03T19:06:34.106Z,43.45
2019-04-03T19:09:10.141Z,43.39
2019-04-03T19:11:40.984Z,43.64
2019-04-03T19:14:11.358Z,43.83
2019-04-03T19:16:51.519Z,43.64
2019-04-03T19:19:23.701Z,43.79
2019-04-03T19:21:57.161Z,43.68
2019-04-03T19:24:27.713Z,43.62
2019-04-03T19:27:04.339Z,44.06
2019-04-03T19:29:35.771Z,44.32
2019-04-03T19:32:06.429Z,44.10
2019-04-03T19:34:36.587Z,44.16
2019-04-03T19:37:10.719Z,44.26
2019-04-03T19:39:40.918Z,44.38
2019-04-03T19:42:14.061Z,44.46
2019-04-03T19:44:47.048Z,44.37
2019-04-03T19:47:19.772Z,44.25
2019-04-03T19:49:53.060Z,44.20
2019-04-03T19:52:23.436Z,44.58
2019-04-03T19:54:53.624Z,44.55
2019-04-03T19:57:27.409Z,44.71
2019-04-03T20:00:01.014Z,44.80
2019-04-03T20:02:29.689Z,44.86
2019-04-03T20:05:00.150Z,44.85
2019-04-03T20:07:30.965Z,45.00
2019-04-03T20:10:03.252Z,44.97
2019-04-03T20:12:37.686Z,45.07
2019-04-03T20:15:13.017Z,45.20
2019-04-03T20:17:43.941Z,45.46
2019-04-03T20:20:33.386Z,45.73
2019-04-03T20:23:02.589Z,45.76
2019-04-03T20:25:33.475Z,45.62
2019-04-03T20:28:03.897Z,45.80
2019-04-03T20:30:34.095Z,46.15
2019-04-03T20:33:04.035Z,46.14
2019-04-03T20:35:34.156Z,46.18
2019-04-03T20:38:04.311Z,46.22
2019-04-03T20:40:34.220Z,46.48
2019-04-03T20:43:04.298Z,46.63
2019-04-03T20:45:34.394Z,46.83
2019-04-03T20:48:04.981Z,46.91
2019-04-03T20:50:36.016Z,46.97
2019-04-03T20:53:10.064Z,47.08
2019-04-03T20:55:40.043Z,47.11
2019-04-03T20:58:10.258Z,47.14
2019-04-03T21:00:40.744Z,47.42
2019-04-03T21:03:12.863Z,47.52
2019-04-03T21:05:42.705Z,47.72
2019-04-03T21:08:13.039Z,47.75
2019-04-03T21:10:43.109Z,47.71
2019-04-03T21:13:15.351Z,47.58
2019-04-03T21:15:45.685Z,47.82
2019-04-03T21:18:16.008Z,48.22
2019-04-03T21:20:46.557Z,48.19
2019-04-03T21:23:16.652Z,48.11
2019-04-03T21:25:46.393Z,48.28
2019-04-03T21:28:16.527Z,48.27
2019-04-03T21:30:49.180Z,48.19
2019-04-03T21:33:19.482Z,48.18
2019-04-03T21:35:57.202Z,48.17
2019-04-03T21:38:29.281Z,48.19
2019-04-03T21:40:59.844Z,48.19
2019-04-03T21:43:30.469Z,48.19
2019-04-03T21:46:02.622Z,48.26
2019-04-03T21:48:32.434Z,48.25
2019-04-03T21:51:02.901Z,48.24
2019-04-03T21:53:33.222Z,48.35
2019-04-03T21:56:05.618Z,48.40
2019-04-03T21:58:35.840Z,48.40
2019-04-03T22:01:26.183Z,48.52
2019-04-03T22:03:56.036Z,48.57
2019-04-03T22:06:27.669Z,48.57
2019-04-03T22:09:00.468Z,48.70
2019-04-03T22:11:30.380Z,48.72
2019-04-03T22:14:00.748Z,48.85
2019-04-03T22:16:30.624Z,49.01
2019-04-03T22:19:01.571Z,49.13
2019-04-03T22:21:32.595Z,49.11
2019-04-03T22:24:03.152Z,49.21
2019-04-03T22:26:33.062Z,49.29
2019-04-03T22:29:03.512Z,49.46
2019-04-03T22:31:33.815Z,49.59
2019-04-03T22:34:04.049Z,49.75
2019-04-03T22:36:34.272Z,49.79
2019-04-03T22:39:06.031Z,49.88
2019-04-03T22:41:37.418Z,49.89
2019-04-03T22:44:07.661Z,49.90
2019-04-03T22:46:37.971Z,49.92
2019-04-03T22:49:07.961Z,49.96
2019-04-03T22:51:38.222Z,49.99
2019-04-03T22:54:08.154Z,49.98
2019-04-03T22:56:38.094Z,50.09
2019-04-03T22:59:08.353Z,50.12
2019-04-03T23:01:38.294Z,50.14
2019-04-03T23:04:08.091Z,50.09
2019-04-03T23:06:37.922Z,50.02
2019-04-03T23:09:08.448Z,50.06
2019-04-03T23:11:38.386Z,50.02
2019-04-03T23:14:08.518Z,50.04
2019-04-03T23:16:38.334Z,50.03
2019-04-03T23:19:08.391Z,50.11
2019-04-03T23:21:38.536Z,50.12
2019-04-03T23:24:08.616Z,50.19
2019-04-03T23:26:38.826Z,50.21
2019-04-03T23:29:08.851Z,50.20
2019-04-03T23:31:39.019Z,50.22
2019-04-03T23:34:08.966Z,50.31
2019-04-03T23:36:39.285Z,50.36
2019-04-03T23:39:09.491Z,50.38
2019-04-03T23:41:39.714Z,50.36
2019-04-03T23:44:10.961Z,50.44
2019-04-03T23:46:41.679Z,50.47
2019-04-03T23:49:11.554Z,50.52
2019-04-03T23:51:41.525Z,50.56
2019-04-03T23:54:11.487Z,50.57
2019-04-03T23:56:41.404Z,50.39
2019-04-03T23:59:13.148Z,50.43
